sensor_id;sensor_type;location;lat;lon;timestamp;pressure;altitude;pressure_sealevel;temperature;humidity
54122;BME280;40029;58.708;50.190;2023-02-21T00:01:32;98474.38;;;-11.96;38.16
54122;BME280;40029;58.708;50.190;2023-02-21T00:04:21;98418.13;;;-12.29;37.98
54122;BME280;40029;58.708;50.190;2023-02-21T00:07:29;98461.44;;;-12.08;38.04
54122;BME280;40029;58.708;50.190;2023-02-21T00:10:19;98468.16;;;-12.07;38.34
54122;BME280;40029;58.708;50.190;2023-02-21T00:13:27;98465.00;;;-12.01;38.33
54122;BME280;40029;58.708;50.190;2023-02-21T00:16:17;98468.25;;;-12.04;38.10
54122;BME280;40029;58.708;50.190;2023-02-21T00:19:07;98403.59;;;-12.40;38.08
54122;BME280;40029;58.708;50.190;2023-02-21T00:21:56;98439.25;;;-12.23;38.16
54122;BME280;40029;58.708;50.190;2023-02-21T00:24:46;98468.41;;;-11.98;37.64
54122;BME280;40029;58.708;50.190;2023-02-21T00:27:35;98472.69;;;-11.95;37.72
54122;BME280;40029;58.708;50.190;2023-02-21T00:30:24;98453.78;;;-12.13;37.94
54122;BME280;40029;58.708;50.190;2023-02-21T00:33:14;98471.59;;;-12.05;38.18
54122;BME280;40029;58.708;50.190;2023-02-21T00:36:03;98462.84;;;-12.16;38.45
54122;BME280;40029;58.708;50.190;2023-02-21T00:38:53;98460.59;;;-12.08;38.24
54122;BME280;40029;58.708;50.190;2023-02-21T00:41:43;98408.56;;;-12.41;38.22
54122;BME280;40029;58.708;50.190;2023-02-21T00:44:32;98419.53;;;-12.38;38.47
54122;BME280;40029;58.708;50.190;2023-02-21T00:47:21;98443.25;;;-12.28;38.09
54122;BME280;40029;58.708;50.190;2023-02-21T00:50:12;98464.38;;;-12.21;38.17
54122;BME280;40029;58.708;50.190;2023-02-21T00:53:02;98411.72;;;-12.47;38.06
54122;BME280;40029;58.708;50.190;2023-02-21T00:55:51;98443.19;;;-12.31;38.08
54122;BME280;40029;58.708;50.190;2023-02-21T00:58:40;98433.84;;;-12.35;38.48
54122;BME280;40029;58.708;50.190;2023-02-21T01:01:30;98440.75;;;-12.28;38.05
54122;BME280;40029;58.708;50.190;2023-02-21T01:04:21;98444.03;;;-12.30;38.17
54122;BME280;40029;58.708;50.190;2023-02-21T01:07:11;98402.88;;;-12.63;38.37
54122;BME280;40029;58.708;50.190;2023-02-21T01:10:00;98423.28;;;-12.52;38.38
54122;BME280;40029;58.708;50.190;2023-02-21T01:12:50;98462.44;;;-12.30;38.03
54122;BME280;40029;58.708;50.190;2023-02-21T01:15:39;98445.53;;;-12.36;38.14
54122;BME280;40029;58.708;50.190;2023-02-21T01:18:29;98416.47;;;-12.56;38.10
54122;BME280;40029;58.708;50.190;2023-02-21T01:21:19;98401.06;;;-12.67;38.04
54122;BME280;40029;58.708;50.190;2023-02-21T01:24:12;98442.00;;;-12.41;38.04
54122;BME280;40029;58.708;50.190;2023-02-21T01:27:03;98393.47;;;-12.70;37.95
54122;BME280;40029;58.708;50.190;2023-02-21T01:30:12;98359.88;;;-13.00;38.22
54122;BME280;40029;58.708;50.190;2023-02-21T01:33:02;98437.84;;;-12.40;38.14
54122;BME280;40029;58.708;50.190;2023-02-21T01:35:51;98453.78;;;-12.40;37.95
54122;BME280;40029;58.708;50.190;2023-02-21T01:38:41;98456.28;;;-12.40;37.99
54122;BME280;40029;58.708;50.190;2023-02-21T01:41:30;98394.09;;;-12.75;38.19
54122;BME280;40029;58.708;50.190;2023-02-21T01:44:41;98453.41;;;-12.52;38.47
54122;BME280;40029;58.708;50.190;2023-02-21T01:47:31;98409.25;;;-12.72;38.67
54122;BME280;40029;58.708;50.190;2023-02-21T01:50:25;98400.22;;;-12.67;38.23
54122;BME280;40029;58.708;50.190;2023-02-21T01:53:34;98455.34;;;-12.43;38.34
54122;BME280;40029;58.708;50.190;2023-02-21T01:56:24;98409.50;;;-12.65;37.98
54122;BME280;40029;58.708;50.190;2023-02-21T01:59:15;98425.44;;;-12.63;37.83
54122;BME280;40029;58.708;50.190;2023-02-21T02:02:19;98440.88;;;-12.50;37.65
54122;BME280;40029;58.708;50.190;2023-02-21T02:05:11;98421.34;;;-12.61;38.38
54122;BME280;40029;58.708;50.190;2023-02-21T02:08:29;98441.56;;;-12.56;37.92
54122;BME280;40029;58.708;50.190;2023-02-21T02:20:45;98439.47;;;-12.69;38.50
54122;BME280;40029;58.708;50.190;2023-02-21T02:43:21;98367.56;;;-13.21;38.44
54122;BME280;40029;58.708;50.190;2023-02-21T02:46:29;98420.31;;;-12.93;37.65
54122;BME280;40029;58.708;50.190;2023-02-21T02:49:06;98420.16;;;-12.97;37.89
54122;BME280;40029;58.708;50.190;2023-02-21T02:52:04;98370.88;;;-13.24;38.16
54122;BME280;40029;58.708;50.190;2023-02-21T02:54:36;98409.03;;;-13.05;38.52
54122;BME280;40029;58.708;50.190;2023-02-21T02:57:09;98411.38;;;-13.10;37.84
54122;BME280;40029;58.708;50.190;2023-02-21T02:59:45;98350.38;;;-13.38;38.40
54122;BME280;40029;58.708;50.190;2023-02-21T03:13:33;98355.63;;;-13.03;38.82
54122;BME280;40029;58.708;50.190;2023-02-21T03:19:10;98407.28;;;-12.82;38.48
54122;BME280;40029;58.708;50.190;2023-02-21T03:21:54;98336.88;;;-13.14;38.38
54122;BME280;40029;58.708;50.190;2023-02-21T03:24:28;98394.78;;;-12.81;38.48
54122;BME280;40029;58.708;50.190;2023-02-21T03:27:03;98382.72;;;-12.91;38.04
54122;BME280;40029;58.708;50.190;2023-02-21T03:29:56;98389.47;;;-12.90;37.76
54122;BME280;40029;58.708;50.190;2023-02-21T03:32:38;98374.91;;;-13.00;38.13
54122;BME280;40029;58.708;50.190;2023-02-21T03:35:11;98329.84;;;-13.26;38.09
54122;BME280;40029;58.708;50.190;2023-02-21T03:37:45;98336.78;;;-13.17;38.74
54122;BME280;40029;58.708;50.190;2023-02-21T03:42:58;98395.72;;;-12.77;37.69
54122;BME280;40029;58.708;50.190;2023-02-21T03:45:31;98353.97;;;-13.02;37.79
54122;BME280;40029;58.708;50.190;2023-02-21T03:48:15;98360.97;;;-12.92;37.88
54122;BME280;40029;58.708;50.190;2023-02-21T03:50:46;98387.44;;;-12.75;37.87
54122;BME280;40029;58.708;50.190;2023-02-21T03:53:19;98398.63;;;-12.65;37.89
54122;BME280;40029;58.708;50.190;2023-02-21T03:55:51;98381.63;;;-12.74;37.14
54122;BME280;40029;58.708;50.190;2023-02-21T03:58:28;98346.78;;;-12.92;37.79
54122;BME280;40029;58.708;50.190;2023-02-21T04:00:59;98381.22;;;-12.61;37.79
54122;BME280;40029;58.708;50.190;2023-02-21T04:03:31;98395.44;;;-12.60;37.76
54122;BME280;40029;58.708;50.190;2023-02-21T04:06:06;98379.44;;;-12.63;37.11
54122;BME280;40029;58.708;50.190;2023-02-21T04:08:38;98330.72;;;-12.98;37.09
54122;BME280;40029;58.708;50.190;2023-02-21T04:11:09;98333.56;;;-13.13;37.63
54122;BME280;40029;58.708;50.190;2023-02-21T04:13:41;98312.53;;;-13.18;37.32
54122;BME280;40029;58.708;50.190;2023-02-21T04:16:12;98330.03;;;-13.20;37.20
54122;BME280;40029;58.708;50.190;2023-02-21T04:18:43;98356.63;;;-12.98;37.80
54122;BME280;40029;58.708;50.190;2023-02-21T04:21:17;98362.38;;;-13.00;37.25
54122;BME280;40029;58.708;50.190;2023-02-21T04:23:48;98311.03;;;-13.40;37.54
54122;BME280;40029;58.708;50.190;2023-02-21T04:26:20;98361.97;;;-13.13;37.45
54122;BME280;40029;58.708;50.190;2023-02-21T04:28:54;98299.19;;;-13.44;37.34
54122;BME280;40029;58.708;50.190;2023-02-21T04:31:26;98303.66;;;-13.61;37.30
54122;BME280;40029;58.708;50.190;2023-02-21T04:33:58;98360.44;;;-13.09;37.19
54122;BME280;40029;58.708;50.190;2023-02-21T04:36:30;98345.00;;;-13.21;37.29
54122;BME280;40029;58.708;50.190;2023-02-21T04:39:01;98355.09;;;-13.20;37.44
54122;BME280;40029;58.708;50.190;2023-02-21T04:41:32;98300.59;;;-13.52;37.16
54122;BME280;40029;58.708;50.190;2023-02-21T04:44:22;98318.69;;;-13.36;37.63
54122;BME280;40029;58.708;50.190;2023-02-21T04:46:53;98344.25;;;-13.19;37.50
54122;BME280;40029;58.708;50.190;2023-02-21T04:49:43;98334.00;;;-13.26;37.26
54122;BME280;40029;58.708;50.190;2023-02-21T04:52:14;98300.03;;;-13.44;37.36
54122;BME280;40029;58.708;50.190;2023-02-21T04:54:46;98295.75;;;-13.48;37.15
54122;BME280;40029;58.708;50.190;2023-02-21T04:57:17;98299.91;;;-13.48;37.64
54122;BME280;40029;58.708;50.190;2023-02-21T04:59:55;98299.31;;;-13.41;37.53
54122;BME280;40029;58.708;50.190;2023-02-21T05:02:27;98338.59;;;-13.13;37.75
54122;BME280;40029;58.708;50.190;2023-02-21T05:04:59;98362.25;;;-13.05;37.42
54122;BME280;40029;58.708;50.190;2023-02-21T05:07:30;98318.03;;;-13.30;37.30
54122;BME280;40029;58.708;50.190;2023-02-21T05:10:01;98349.06;;;-12.99;37.23
54122;BME280;40029;58.708;50.190;2023-02-21T05:12:36;98336.88;;;-13.14;37.39
54122;BME280;40029;58.708;50.190;2023-02-21T05:15:11;98355.53;;;-13.06;37.75
54122;BME280;40029;58.708;50.190;2023-02-21T05:17:42;98327.34;;;-13.26;37.53
54122;BME280;40029;58.708;50.190;2023-02-21T05:20:33;98288.13;;;-13.51;37.35
54122;BME280;40029;58.708;50.190;2023-02-21T05:23:22;98336.63;;;-13.22;37.37
54122;BME280;40029;58.708;50.190;2023-02-21T05:26:06;98344.44;;;-13.13;37.37
54122;BME280;40029;58.708;50.190;2023-02-21T05:28:39;98331.06;;;-13.13;37.12
54122;BME280;40029;58.708;50.190;2023-02-21T05:31:10;98301.19;;;-13.34;36.86
54122;BME280;40029;58.708;50.190;2023-02-21T05:33:41;98234.97;;;-13.68;37.18
54122;BME280;40029;58.708;50.190;2023-02-21T05:36:14;98348.19;;;-13.00;36.83
54122;BME280;40029;58.708;50.190;2023-02-21T05:38:48;98339.75;;;-13.03;37.12
54122;BME280;40029;58.708;50.190;2023-02-21T05:41:38;98328.25;;;-12.97;37.50
54122;BME280;40029;58.708;50.190;2023-02-21T05:44:09;98333.50;;;-12.89;37.27
54122;BME280;40029;58.708;50.190;2023-02-21T05:46:40;98274.13;;;-13.17;37.21
54122;BME280;40029;58.708;50.190;2023-02-21T05:49:11;98315.94;;;-12.89;37.30
54122;BME280;40029;58.708;50.190;2023-02-21T05:51:43;98333.31;;;-12.68;37.07
54122;BME280;40029;58.708;50.190;2023-02-21T05:54:17;98334.84;;;-12.45;37.07
54122;BME280;40029;58.708;50.190;2023-02-21T05:57:07;98287.13;;;-12.75;36.75
54122;BME280;40029;58.708;50.190;2023-02-21T05:59:38;98340.06;;;-12.39;36.93
54122;BME280;40029;58.708;50.190;2023-02-21T06:02:28;98284.00;;;-12.68;36.92
54122;BME280;40029;58.708;50.190;2023-02-21T06:04:59;98319.00;;;-12.44;36.88
54122;BME280;40029;58.708;50.190;2023-02-21T06:07:30;98322.38;;;-12.42;37.08
54122;BME280;40029;58.708;50.190;2023-02-21T06:10:02;98327.44;;;-12.40;36.67
54122;BME280;40029;58.708;50.190;2023-02-21T06:12:34;98265.69;;;-12.65;36.62
54122;BME280;40029;58.708;50.190;2023-02-21T06:15:24;98267.47;;;-12.61;36.67
54122;BME280;40029;58.708;50.190;2023-02-21T06:17:56;98247.84;;;-12.74;36.78
54122;BME280;40029;58.708;50.190;2023-02-21T06:20:27;98268.13;;;-12.38;37.06
54122;BME280;40029;58.708;50.190;2023-02-21T06:22:59;98319.09;;;-12.11;36.84
54122;BME280;40029;58.708;50.190;2023-02-21T06:25:30;98276.88;;;-12.24;36.89
54122;BME280;40029;58.708;50.190;2023-02-21T06:28:01;98276.16;;;-12.20;37.17
54122;BME280;40029;58.708;50.190;2023-02-21T06:30:33;98298.47;;;-12.00;37.25
54122;BME280;40029;58.708;50.190;2023-02-21T06:33:04;98268.84;;;-12.12;37.28
54122;BME280;40029;58.708;50.190;2023-02-21T06:35:53;98310.72;;;-11.79;37.47
54122;BME280;40029;58.708;50.190;2023-02-21T06:38:25;98307.47;;;-11.75;36.88
54122;BME280;40029;58.708;50.190;2023-02-21T06:40:56;98206.88;;;-12.15;37.04
54122;BME280;40029;58.708;50.190;2023-02-21T06:43:27;98301.25;;;-11.56;36.59
54122;BME280;40029;58.708;50.190;2023-02-21T06:45:58;98261.34;;;-11.77;36.91
54122;BME280;40029;58.708;50.190;2023-02-21T06:48:29;98249.09;;;-11.67;36.67
54122;BME280;40029;58.708;50.190;2023-02-21T06:51:01;98295.16;;;-11.33;37.10
54122;BME280;40029;58.708;50.190;2023-02-21T06:53:32;98303.84;;;-11.20;37.10
54122;BME280;40029;58.708;50.190;2023-02-21T06:56:04;98304.03;;;-11.13;37.00
54122;BME280;40029;58.708;50.190;2023-02-21T06:58:35;98274.19;;;-11.34;36.81
54122;BME280;40029;58.708;50.190;2023-02-21T07:01:06;98242.00;;;-11.47;36.71
54122;BME280;40029;58.708;50.190;2023-02-21T07:03:39;98250.00;;;-11.28;36.28
54122;BME280;40029;58.708;50.190;2023-02-21T07:06:13;98261.34;;;-11.10;36.87
54122;BME280;40029;58.708;50.190;2023-02-21T07:08:44;98253.06;;;-11.05;36.43
54122;BME280;40029;58.708;50.190;2023-02-21T07:11:17;98275.13;;;-10.94;36.59
54122;BME280;40029;58.708;50.190;2023-02-21T07:13:52;98244.59;;;-11.09;36.36
54122;BME280;40029;58.708;50.190;2023-02-21T07:16:24;98283.31;;;-10.65;36.68
54122;BME280;40029;58.708;50.190;2023-02-21T07:18:56;98223.91;;;-10.97;36.52
54122;BME280;40029;58.708;50.190;2023-02-21T07:21:27;98282.84;;;-10.48;36.49
54122;BME280;40029;58.708;50.190;2023-02-21T07:23:58;98232.06;;;-10.68;36.53
54122;BME280;40029;58.708;50.190;2023-02-21T07:26:29;98268.59;;;-10.48;36.14
54122;BME280;40029;58.708;50.190;2023-02-21T07:29:00;98270.78;;;-10.21;35.62
54122;BME280;40029;58.708;50.190;2023-02-21T07:31:32;98204.81;;;-10.48;35.72
54122;BME280;40029;58.708;50.190;2023-02-21T07:34:04;98268.59;;;-10.04;35.86
54122;BME280;40029;58.708;50.190;2023-02-21T07:36:36;98259.91;;;-9.73;35.68
54122;BME280;40029;58.708;50.190;2023-02-21T07:39:08;98262.81;;;-9.51;35.48
54122;BME280;40029;58.708;50.190;2023-02-21T07:41:58;98246.13;;;-9.45;35.42
54122;BME280;40029;58.708;50.190;2023-02-21T07:44:47;98267.13;;;-9.46;35.32
54122;BME280;40029;58.708;50.190;2023-02-21T07:47:18;98165.19;;;-9.60;35.33
54122;BME280;40029;58.708;50.190;2023-02-21T07:49:50;98197.72;;;-9.24;34.85
54122;BME280;40029;58.708;50.190;2023-02-21T07:52:21;98202.75;;;-9.25;34.83
54122;BME280;40029;58.708;50.190;2023-02-21T07:54:52;98251.13;;;-8.93;34.63
54122;BME280;40029;58.708;50.190;2023-02-21T07:57:42;98217.06;;;-9.23;34.83
54122;BME280;40029;58.708;50.190;2023-02-21T08:00:32;98246.88;;;-8.97;34.75
54122;BME280;40029;58.708;50.190;2023-02-21T08:03:03;98216.78;;;-8.84;35.03
54122;BME280;40029;58.708;50.190;2023-02-21T08:05:34;98200.78;;;-8.84;34.80
54122;BME280;40029;58.708;50.190;2023-02-21T08:08:09;98234.00;;;-8.57;34.53
54122;BME280;40029;58.708;50.190;2023-02-21T08:10:40;98186.72;;;-8.67;34.86
54122;BME280;40029;58.708;50.190;2023-02-21T08:13:11;98173.41;;;-8.55;34.57
54122;BME280;40029;58.708;50.190;2023-02-21T08:15:42;98235.34;;;-8.12;34.34
54122;BME280;40029;58.708;50.190;2023-02-21T08:18:16;98196.53;;;-8.18;33.65
54122;BME280;40029;58.708;50.190;2023-02-21T08:20:50;98212.59;;;-8.15;34.29
54122;BME280;40029;58.708;50.190;2023-02-21T08:23:22;98222.75;;;-8.07;34.38
54122;BME280;40029;58.708;50.190;2023-02-21T08:25:53;98201.78;;;-8.01;34.33
54122;BME280;40029;58.708;50.190;2023-02-21T08:28:43;98158.53;;;-8.27;34.17
54122;BME280;40029;58.708;50.190;2023-02-21T08:31:14;98213.69;;;-7.87;34.34
54122;BME280;40029;58.708;50.190;2023-02-21T08:33:46;98164.34;;;-8.38;33.79
54122;BME280;40029;58.708;50.190;2023-02-21T08:36:17;98202.69;;;-7.90;34.49
54122;BME280;40029;58.708;50.190;2023-02-21T08:38:48;98182.59;;;-7.81;34.26
54122;BME280;40029;58.708;50.190;2023-02-21T08:41:19;98148.84;;;-7.85;33.99
54122;BME280;40029;58.708;50.190;2023-02-21T08:43:51;98167.50;;;-7.72;34.01
54122;BME280;40029;58.708;50.190;2023-02-21T08:46:22;98207.47;;;-7.30;33.76
54122;BME280;40029;58.708;50.190;2023-02-21T08:48:53;98186.38;;;-7.33;33.74
54122;BME280;40029;58.708;50.190;2023-02-21T08:51:26;98133.88;;;-7.62;33.84
54122;BME280;40029;58.708;50.190;2023-02-21T08:53:58;98181.31;;;-7.32;33.36
54122;BME280;40029;58.708;50.190;2023-02-21T08:56:29;98194.84;;;-7.28;33.90
54122;BME280;40029;58.708;50.190;2023-02-21T08:59:00;98149.06;;;-7.57;34.01
54122;BME280;40029;58.708;50.190;2023-02-21T09:01:51;98179.72;;;-7.19;33.71
54122;BME280;40029;58.708;50.190;2023-02-21T09:04:22;98141.72;;;-7.25;33.42
54122;BME280;40029;58.708;50.190;2023-02-21T09:06:54;98195.84;;;-7.03;33.22
54122;BME280;40029;58.708;50.190;2023-02-21T09:09:44;98167.13;;;-7.10;33.53
54122;BME280;40029;58.708;50.190;2023-02-21T09:12:16;98149.25;;;-7.33;33.54
54122;BME280;40029;58.708;50.190;2023-02-21T09:14:47;98133.22;;;-7.36;33.32
54122;BME280;40029;58.708;50.190;2023-02-21T09:17:18;98133.97;;;-7.49;32.69
54122;BME280;40029;58.708;50.190;2023-02-21T09:19:49;98146.53;;;-7.59;33.17
54122;BME280;40029;58.708;50.190;2023-02-21T09:22:20;98190.69;;;-7.21;33.48
54122;BME280;40029;58.708;50.190;2023-02-21T09:24:51;98156.00;;;-7.35;33.18
54122;BME280;40029;58.708;50.190;2023-02-21T09:27:22;98183.22;;;-7.00;32.94
54122;BME280;40029;58.708;50.190;2023-02-21T09:30:09;98124.81;;;-7.32;33.02
54122;BME280;40029;58.708;50.190;2023-02-21T09:32:40;98186.59;;;-6.99;33.27
54122;BME280;40029;58.708;50.190;2023-02-21T09:35:12;98181.44;;;-7.16;33.31
54122;BME280;40029;58.708;50.190;2023-02-21T09:37:45;98171.34;;;-7.07;33.44
54122;BME280;40029;58.708;50.190;2023-02-21T09:42:55;98123.91;;;-7.42;33.27
54122;BME280;40029;58.708;50.190;2023-02-21T09:45:30;98132.41;;;-7.34;33.02
54122;BME280;40029;58.708;50.190;2023-02-21T09:48:13;98154.56;;;-6.96;33.50
54122;BME280;40029;58.708;50.190;2023-02-21T09:51:05;98149.56;;;-6.84;32.82
54122;BME280;40029;58.708;50.190;2023-02-21T09:53:41;98130.19;;;-6.74;32.99
54122;BME280;40029;58.708;50.190;2023-02-21T09:56:20;98114.84;;;-7.03;33.06
54122;BME280;40029;58.708;50.190;2023-02-21T09:59:14;98123.41;;;-6.83;33.05
54122;BME280;40029;58.708;50.190;2023-02-21T10:11:02;98148.03;;;-6.42;33.11
54122;BME280;40029;58.708;50.190;2023-02-21T10:16:34;98149.81;;;-6.12;32.85
54122;BME280;40029;58.708;50.190;2023-02-21T10:19:24;98143.88;;;-6.12;33.04
54122;BME280;40029;58.708;50.190;2023-02-21T10:21:56;98148.13;;;-6.11;33.22
54122;BME280;40029;58.708;50.190;2023-02-21T10:24:31;98112.56;;;-6.39;33.26
54122;BME280;40029;58.708;50.190;2023-02-21T10:27:23;98148.97;;;-6.12;33.13
54122;BME280;40029;58.708;50.190;2023-02-21T10:30:07;98110.06;;;-6.31;33.22
54122;BME280;40029;58.708;50.190;2023-02-21T10:32:40;98135.47;;;-6.10;33.37
54122;BME280;40029;58.708;50.190;2023-02-21T10:35:11;98099.09;;;-6.32;33.02
54122;BME280;40029;58.708;50.190;2023-02-21T10:37:49;98146.44;;;-5.91;33.12
54122;BME280;40029;58.708;50.190;2023-02-21T10:40:43;98137.19;;;-5.93;33.23
54122;BME280;40029;58.708;50.190;2023-02-21T10:43:43;98140.56;;;-5.94;33.24
54122;BME280;40029;58.708;50.190;2023-02-21T10:46:22;98145.59;;;-5.99;33.36
54122;BME280;40029;58.708;50.190;2023-02-21T10:49:17;98144.75;;;-6.19;33.34
54122;BME280;40029;58.708;50.190;2023-02-21T10:52:10;98145.59;;;-6.11;32.89
54122;BME280;40029;58.708;50.190;2023-02-21T10:55:19;98113.44;;;-6.24;33.30
54122;BME280;40029;58.708;50.190;2023-02-21T10:57:55;98136.28;;;-6.18;33.29
54122;BME280;40029;58.708;50.190;2023-02-21T11:00:33;98145.56;;;-6.17;33.69
54122;BME280;40029;58.708;50.190;2023-02-21T11:03:20;98093.16;;;-6.41;33.74
54122;BME280;40029;58.708;50.190;2023-02-21T11:05:54;98134.59;;;-6.19;33.73
54122;BME280;40029;58.708;50.190;2023-02-21T11:08:40;98132.06;;;-6.19;33.45
54122;BME280;40029;58.708;50.190;2023-02-21T11:11:12;98092.31;;;-6.39;33.65
54122;BME280;40029;58.708;50.190;2023-02-21T11:13:43;98140.50;;;-6.13;33.96
54122;BME280;40029;58.708;50.190;2023-02-21T11:16:19;98138.75;;;-6.34;34.25
54122;BME280;40029;58.708;50.190;2023-02-21T11:19:05;98146.44;;;-6.18;33.77
54122;BME280;40029;58.708;50.190;2023-02-21T11:21:37;98148.09;;;-6.23;33.89
54122;BME280;40029;58.708;50.190;2023-02-21T11:24:10;98106.59;;;-6.55;34.16
54122;BME280;40029;58.708;50.190;2023-02-21T11:26:47;98137.94;;;-6.30;33.80
54122;BME280;40029;58.708;50.190;2023-02-21T11:29:22;98102.41;;;-6.48;34.15
54122;BME280;40029;58.708;50.190;2023-02-21T11:31:55;98088.06;;;-6.53;33.92
54122;BME280;40029;58.708;50.190;2023-02-21T11:34:28;98141.38;;;-6.20;33.54
54122;BME280;40029;58.708;50.190;2023-02-21T11:37:18;98141.31;;;-6.37;33.53
54122;BME280;40029;58.708;50.190;2023-02-21T11:39:50;98108.28;;;-6.60;34.08
54122;BME280;40029;58.708;50.190;2023-02-21T11:42:40;98109.13;;;-6.61;34.35
54122;BME280;40029;58.708;50.190;2023-02-21T11:45:23;98138.75;;;-6.38;34.21
54122;BME280;40029;58.708;50.190;2023-02-21T11:48:05;98098.16;;;-6.61;34.16
54122;BME280;40029;58.708;50.190;2023-02-21T11:50:43;98105.72;;;-6.69;34.25
54122;BME280;40029;58.708;50.190;2023-02-21T11:53:28;98135.38;;;-6.40;34.11
54122;BME280;40029;58.708;50.190;2023-02-21T11:56:31;98074.44;;;-6.86;34.31
54122;BME280;40029;58.708;50.190;2023-02-21T11:59:25;98137.09;;;-6.36;34.65
54122;BME280;40029;58.708;50.190;2023-02-21T12:07:56;98142.06;;;-6.59;34.88
54122;BME280;40029;58.708;50.190;2023-02-21T12:11:08;98086.22;;;-6.91;35.08
54122;BME280;40029;58.708;50.190;2023-02-21T12:34:35;98129.44;;;-6.42;35.74
54122;BME280;40029;58.708;50.190;2023-02-21T12:48:43;98147.25;;;-6.32;35.16
54122;BME280;40029;58.708;50.190;2023-02-21T12:51:19;98106.63;;;-6.53;35.48
54122;BME280;40029;58.708;50.190;2023-02-21T12:54:01;98143.03;;;-6.26;35.36
54122;BME280;40029;58.708;50.190;2023-02-21T12:57:07;98060.91;;;-6.91;35.40
54122;BME280;40029;58.708;50.190;2023-02-21T13:03:04;98149.66;;;-6.62;36.02
54122;BME280;40029;58.708;50.190;2023-02-21T13:05:44;98149.63;;;-6.64;35.89
54122;BME280;40029;58.708;50.190;2023-02-21T13:08:27;98144.56;;;-6.68;36.07
54122;BME280;40029;58.708;50.190;2023-02-21T13:11:16;98151.31;;;-6.64;36.22
54122;BME280;40029;58.708;50.190;2023-02-21T13:13:49;98145.44;;;-6.66;36.13
54122;BME280;40029;58.708;50.190;2023-02-21T13:16:21;98158.97;;;-6.58;36.33
54122;BME280;40029;58.708;50.190;2023-02-21T13:19:02;98147.94;;;-6.65;36.59
54122;BME280;40029;58.708;50.190;2023-02-21T13:27:37;98161.44;;;-6.70;37.43
54122;BME280;40029;58.708;50.190;2023-02-21T13:33:26;98157.97;;;-6.88;37.59
54122;BME280;40029;58.708;50.190;2023-02-21T13:41:45;98153.78;;;-6.83;37.47
54122;BME280;40029;58.708;50.190;2023-02-21T13:44:41;98118.22;;;-7.02;37.31
54122;BME280;40029;58.708;50.190;2023-02-21T13:47:17;98161.41;;;-6.80;37.43
54122;BME280;40029;58.708;50.190;2023-02-21T14:00:49;98151.16;;;-6.98;38.10
54122;BME280;40029;58.708;50.190;2023-02-21T14:08:41;98171.38;;;-7.04;38.80
54122;BME280;40029;58.708;50.190;2023-02-21T14:11:17;98121.44;;;-7.33;38.80
54122;BME280;40029;58.708;50.190;2023-02-21T14:13:56;98157.03;;;-7.03;38.65
54122;BME280;40029;58.708;50.190;2023-02-21T14:16:36;98125.69;;;-7.22;38.63
54122;BME280;40029;58.708;50.190;2023-02-21T14:19:25;98173.06;;;-7.03;38.73
54122;BME280;40029;58.708;50.190;2023-02-21T14:24:46;98153.66;;;-7.09;39.04
54122;BME280;40029;58.708;50.190;2023-02-21T14:32:48;98176.47;;;-6.99;39.44
54122;BME280;40029;58.708;50.190;2023-02-21T14:35:30;98177.25;;;-7.11;39.66
54122;BME280;40029;58.708;50.190;2023-02-21T14:38:21;98117.19;;;-7.37;39.46
54122;BME280;40029;58.708;50.190;2023-02-21T14:46:45;98162.84;;;-7.18;40.18
54122;BME280;40029;58.708;50.190;2023-02-21T15:07:15;98164.47;;;-7.30;40.74
54122;BME280;40029;58.708;50.190;2023-02-21T15:10:24;98159.38;;;-7.33;40.81
54122;BME280;40029;58.708;50.190;2023-02-21T15:13:27;98144.94;;;-7.46;40.72
54122;BME280;40029;58.708;50.190;2023-02-21T15:16:08;98167.84;;;-7.29;40.20
54122;BME280;40029;58.708;50.190;2023-02-21T15:18:57;98136.44;;;-7.59;40.51
54122;BME280;40029;58.708;50.190;2023-02-21T15:21:29;98119.47;;;-7.70;40.29
54122;BME280;40029;58.708;50.190;2023-02-21T15:24:10;98125.44;;;-7.62;40.32
54122;BME280;40029;58.708;50.190;2023-02-21T15:26:42;98018.81;;;-8.23;40.16
54122;BME280;40029;58.708;50.190;2023-02-21T15:29:15;98175.41;;;-7.34;40.26
54122;BME280;40029;58.708;50.190;2023-02-21T15:31:49;98076.28;;;-7.98;40.15
54122;BME280;40029;58.708;50.190;2023-02-21T15:34:26;98129.69;;;-7.58;40.48
54122;BME280;40029;58.708;50.190;2023-02-21T15:39:51;98164.38;;;-7.40;39.84
54122;BME280;40029;58.708;50.190;2023-02-21T15:42:24;98161.03;;;-7.36;40.17
54122;BME280;40029;58.708;50.190;2023-02-21T15:44:59;98170.31;;;-7.37;39.98
54122;BME280;40029;58.708;50.190;2023-02-21T15:47:33;98130.47;;;-7.67;39.67
54122;BME280;40029;58.708;50.190;2023-02-21T15:52:55;98097.44;;;-7.84;40.12
54122;BME280;40029;58.708;50.190;2023-02-21T15:55:28;98165.94;;;-7.56;40.32
54122;BME280;40029;58.708;50.190;2023-02-21T16:01:25;98162.66;;;-7.46;40.12
54122;BME280;40029;58.708;50.190;2023-02-21T16:04:20;98172.59;;;-7.66;40.61
54122;BME280;40029;58.708;50.190;2023-02-21T16:06:54;98175.25;;;-7.53;40.80
54122;BME280;40029;58.708;50.190;2023-02-21T16:09:29;98166.81;;;-7.54;40.32
54122;BME280;40029;58.708;50.190;2023-02-21T16:14:46;98076.22;;;-8.04;40.00
54122;BME280;40029;58.708;50.190;2023-02-21T16:17:23;98155.00;;;-7.55;40.35
54122;BME280;40029;58.708;50.190;2023-02-21T16:20:21;98155.03;;;-7.50;40.56
54122;BME280;40029;58.708;50.190;2023-02-21T16:23:24;98159.97;;;-7.66;40.29
54122;BME280;40029;58.708;50.190;2023-02-21T16:26:19;98107.41;;;-8.00;40.75
54122;BME280;40029;58.708;50.190;2023-02-21T16:28:55;98149.78;;;-7.76;40.84
54122;BME280;40029;58.708;50.190;2023-02-21T16:31:48;98106.53;;;-8.04;40.66
54122;BME280;40029;58.708;50.190;2023-02-21T16:34:19;98151.50;;;-7.69;40.54
54122;BME280;40029;58.708;50.190;2023-02-21T16:36:50;98115.06;;;-7.93;40.20
54122;BME280;40029;58.708;50.190;2023-02-21T16:39:24;98152.31;;;-7.76;40.71
54122;BME280;40029;58.708;50.190;2023-02-21T16:41:56;98154.09;;;-7.63;40.58
54122;BME280;40029;58.708;50.190;2023-02-21T16:44:28;98153.22;;;-7.65;40.70
54122;BME280;40029;58.708;50.190;2023-02-21T16:47:18;98095.69;;;-7.94;40.24